»·PEaware :: SWA20 KPHX-KSAN

SWA20 :: KPHX-KSAN

FLIGHT INFORMATION

Flight Status: Arrived
Operator:
Southwest Airlines
More flights by this operator :: More flights under this callsign
Pilot: Camron S. (27302)
Aircraft: BOEING 737-700
(B737)
More flights by this aircraft type
Origin: KPHX Phoenix Sky Harbor Intl
United States
Destination: KSAN San Diego Intl-Lindbergh
United States
More flights between these airports :: More routes between these airports
Route: +FYRBD1 MOHAK J2 HOGGZ LUCKI1
File this flight plan on PilotEdge
Remarks:
Altitude:
(Current/Filed)
38,000ft
Speed:
(Current/Filed)
290kts
Departed: 09-Jan-20 08:24 PM
Arrived: 09-Jan-20 09:18 PM
Distance/Time
Traveled:
264nm/0:54
Distance/Time
To Go:
Arrived

Flight Plot

Page will automatically refresh every two minutes.

Flight plan parsing failed; only flown route is shown


Map Options




Map Legend


Flown Route
Filed Route
Departure Airport
Arrival Airport
Navaid (VOR, NDB)
Fix

Horizontal Profiles

Position Reports

Time Latitude Longitude Heading Altitude Ground
Speed
09-Jan-20 20:10 33.434043 -111.997328 77 1125ft 0kts
09-Jan-20 20:11 33.434043 -111.997328 77 1125ft 0kts
09-Jan-20 20:12 33.434043 -111.997328 77 1125ft 0kts
09-Jan-20 20:13 33.434043 -111.997328 77 1125ft 0kts
09-Jan-20 20:14 33.434043 -111.997328 77 1125ft 0kts
09-Jan-20 20:15 33.434043 -111.997328 77 1125ft 0kts
09-Jan-20 20:16 33.434043 -111.997328 77 1125ft 0kts
09-Jan-20 20:17 33.434043 -111.997329 77 1125ft 0kts
09-Jan-20 20:18 33.434014 -111.997689 121 1125ft 2kts
09-Jan-20 20:19 33.434253 -111.997811 182 1126ft 0kts
09-Jan-20 20:20 33.434253 -111.997811 182 1126ft 0kts
09-Jan-20 20:21 33.433245 -111.997807 177 1123ft 0kts
09-Jan-20 20:22 33.432155 -111.995549 92 1124ft 18kts
09-Jan-20 20:23 33.431046 -111.999278 269 1122ft 100kts
09-Jan-20 20:24 33.430319 -112.052535 268 3079ft 192kts
09-Jan-20 20:25 33.412700 -112.123914 250 5384ft 242kts
09-Jan-20 20:26 33.359080 -112.176623 183 8309ft 285kts
09-Jan-20 20:27 33.278171 -112.151223 173 10737ft 327kts
09-Jan-20 20:28 33.222578 -112.218565 267 13446ft 325kts
09-Jan-20 20:29 33.186252 -112.318792 237 16266ft 343kts
09-Jan-20 20:30 33.127358 -112.410418 235 18846ft 354kts
09-Jan-20 20:31 33.066881 -112.503994 236 21463ft 356kts
09-Jan-20 20:32 33.006473 -112.597252 236 23969ft 353kts
09-Jan-20 20:33 32.956802 -112.694972 254 26283ft 343kts
09-Jan-20 20:34 32.938471 -112.807615 260 28060ft 350kts
09-Jan-20 20:35 32.922798 -112.924309 262 29373ft 365kts
09-Jan-20 20:36 32.906150 -113.046859 263 30461ft 383kts
09-Jan-20 20:37 32.889288 -113.170007 263 32271ft 377kts
09-Jan-20 20:38 32.872486 -113.291518 263 34056ft 368kts
09-Jan-20 20:39 32.855809 -113.411676 263 35371ft 366kts
09-Jan-20 20:40 32.839146 -113.530665 263 36517ft 364kts
09-Jan-20 20:41 32.822452 -113.649282 264 37446ft 364kts
09-Jan-20 20:42 32.804987 -113.769240 263 37948ft 376kts
09-Jan-20 20:43 32.787339 -113.892812 263 37946ft 378kts
09-Jan-20 20:44 32.774924 -114.015447 271 37945ft 374kts
09-Jan-20 20:45 32.777594 -114.139454 274 37942ft 377kts
09-Jan-20 20:46 32.782711 -114.263251 273 37936ft 373kts
09-Jan-20 20:47 32.789572 -114.386095 281 37946ft 375kts
09-Jan-20 20:48 32.820190 -114.504999 287 37937ft 375kts
09-Jan-20 20:49 32.852604 -114.622741 287 37942ft 376kts
09-Jan-20 20:50 32.878239 -114.741192 273 37926ft 379kts
09-Jan-20 20:51 32.876265 -114.867554 270 35926ft 377kts
09-Jan-20 20:52 32.873521 -114.990566 271 33568ft 372kts
09-Jan-20 20:54 32.870570 -115.115289 275 30975ft 383kts
09-Jan-20 20:55 32.867481 -115.241519 277 28532ft 374kts
09-Jan-20 20:56 32.862208 -115.361965 270 26313ft 361kts
09-Jan-20 20:57 32.845779 -115.477475 269 24149ft 353kts
09-Jan-20 20:58 32.826660 -115.596110 267 23854ft 362kts
09-Jan-20 20:59 32.807946 -115.710285 266 21705ft 346kts
09-Jan-20 21:00 32.789871 -115.820033 266 19547ft 334kts
09-Jan-20 21:01 32.779081 -115.930342 271 18595ft 344kts
09-Jan-20 21:02 32.770724 -116.041792 270 16214ft 333kts
09-Jan-20 21:03 32.762634 -116.148915 269 13999ft 322kts
09-Jan-20 21:04 32.754699 -116.252471 269 12218ft 301kts
09-Jan-20 21:05 32.747157 -116.349290 269 11901ft 292kts
09-Jan-20 21:06 32.739899 -116.442396 269 10405ft 278kts
09-Jan-20 21:07 32.732149 -116.534541 267 9943ft 265kts
09-Jan-20 21:08 32.723951 -116.618452 267 8781ft 251kts
09-Jan-20 21:09 32.716796 -116.699373 267 7540ft 243kts
09-Jan-20 21:10 32.710617 -116.778672 266 6311ft 238kts
09-Jan-20 21:11 32.697109 -116.852162 252 5455ft 224kts
09-Jan-20 21:12 32.676259 -116.921326 260 4449ft 216kts
09-Jan-20 21:13 32.685127 -116.990391 288 3370ft 211kts
09-Jan-20 21:13 32.697983 -117.043005 287 2596ft 176kts
09-Jan-20 21:15 32.712260 -117.101932 287 1466ft 143kts
09-Jan-20 21:16 32.723127 -117.146687 287 612ft 142kts
09-Jan-20 21:16 32.732122 -117.183709 286 44ft 141kts
09-Jan-20 21:18 32.735348 -117.201328 105 17ft 9kts
09-Jan-20 21:18 32.734651 -117.199040 141 17ft 8kts
09-Jan-20 21:19 32.733736 -117.198568 176 17ft 0kts
09-Jan-20 21:20 32.733736 -117.198568 176 17ft 0kts

Navigation Log

Ident Type
Flight plan parsing failed, navigation log unavailable